Etusivu
METAR-TAF:

METAR-TAF

Lentoasemat :

Windom Municipal Airport

Windom, Minnesota, Yhdysvallat

Leveyspiiri: 43-54-48N, Pituuspiiri: 095-06-34W, korkeus merenpinnasta: 430 m

Tämänhetkinen sää

Tämä raportti tehtiin 49 minuuttia sitten, kello 11.55 UTC
tyyntä
Lämpötila -3°C
Kosteus 93%
Ilmanpaine 1024 hPa
Näkyvyys: 16.1 km
selkeää

METAR: KMWM 151155Z AUTO 00000KT 10SM CLR M03/M04 A3025 RMK AO2

Aika: 06:44 (12:44 UTC)


TAF: puuttuu

Säähavainnot ja -ennusteet yli 4000 lentoasemalta (METAR- ja TAF-raportit).

Käytössä olevat sääasemat on merkitty karttaan keltaisilla ja punaisilla pisteillä.

Aseta hiiri pisteen päälle nähdäksesi sääaseman nimen.

Klikkaa sitten nähdäksesi säähavainnot ja -ennusteet.

Kartan vaihtaminen: klikkaa mustalla rastilla varustettuja vihreitä pisteitä, niin voit zoomata sisään; viivalla varustettua vihreää pistettä, niin voit zoomata ulos tai vihreitä nuolia, niin pääset viereisille kartoille.


METAR-TAF: